Terminal Aerodrome Forecast
Issued by NWS

Home | Current Version | Previous Version | Text Only | Print | Product List | Glossary Off
Versions: 1 2 3 4 5 6 7 8 9 10 11 12 13 14

000
FTUS43 KUNR 251100
TAFGCC
TAF
KGCC 251128Z 2512/2612 VRB04KT P6SM SKC
     FM251600 18015KT P6SM SKC=

USA.gov is the U.S. government's official web portal to all federal, state and local government web resources and services.